createdAt,value
2023-02-09T00:01:26.821Z,95590.78
2023-02-09T00:03:53.637Z,95597.41
2023-02-09T00:06:21.816Z,95595.06
2023-02-09T00:08:48.345Z,95587.25
2023-02-09T00:11:20.142Z,95582.16
2023-02-09T00:13:46.795Z,95585.50
2023-02-09T00:16:13.786Z,95583.94
2023-02-09T00:18:40.509Z,95582.16
2023-02-09T00:21:10.721Z,95586.47
2023-02-09T00:23:39.565Z,95584.56
2023-02-09T00:26:09.720Z,95581.22
2023-02-09T00:28:36.472Z,95586.16
2023-02-09T00:31:10.864Z,95583.59
2023-02-09T00:33:40.557Z,95580.25
2023-02-09T00:36:11.437Z,95571.22
2023-02-09T00:38:38.021Z,95569.31
2023-02-09T00:41:04.789Z,95560.13
2023-02-09T00:43:32.110Z,95571.41
2023-02-09T00:45:58.597Z,95568.38
2023-02-09T00:48:25.553Z,95575.25
2023-02-09T00:50:52.892Z,95565.72
2023-02-09T00:53:21.386Z,95565.25
2023-02-09T00:55:49.253Z,95559.22
2023-02-09T00:58:17.112Z,95570.66
2023-02-09T01:00:44.552Z,95566.41
2023-02-09T01:03:12.019Z,95571.31
2023-02-09T01:05:40.143Z,95568.63
2023-02-09T01:08:06.722Z,95562.56
2023-02-09T01:10:33.281Z,95559.06
2023-02-09T01:12:59.887Z,95556.53
2023-02-09T01:15:28.921Z,95560.03
2023-02-09T01:17:55.377Z,95556.25
2023-02-09T01:20:22.019Z,95567.03
2023-02-09T01:22:48.439Z,95561.63
2023-02-09T01:25:14.911Z,95557.16
2023-02-09T01:27:42.365Z,95562.09
2023-02-09T01:30:09.758Z,95555.28
2023-02-09T01:32:37.189Z,95565.78
2023-02-09T01:35:03.829Z,95556.75
2023-02-09T01:37:30.372Z,95548.47
2023-02-09T01:39:56.839Z,95536.72
2023-02-09T01:42:23.479Z,95532.75
2023-02-09T01:44:49.986Z,95530.22
2023-02-09T01:47:19.120Z,95536.53
2023-02-09T01:49:49.889Z,95534.81
2023-02-09T01:52:21.071Z,95532.41
2023-02-09T01:54:56.810Z,95528.34
2023-02-09T01:57:37.225Z,95529.59
2023-02-09T02:00:10.982Z,95540.28
2023-02-09T02:02:47.844Z,95526.63
2023-02-09T02:05:15.273Z,95531.06
2023-02-09T02:08:19.549Z,95530.78
2023-02-09T02:10:46.439Z,95528.25
2023-02-09T02:13:13.119Z,95532.53
2023-02-09T02:15:59.745Z,95533.97
2023-02-09T02:18:38.623Z,95518.56
2023-02-09T02:21:33.771Z,95516.81
2023-02-09T02:24:06.332Z,95508.72
2023-02-09T02:26:48.859Z,95512.22
2023-02-09T02:29:36.895Z,95513.81
2023-02-09T02:32:26.314Z,95514.75
2023-02-09T02:35:08.537Z,95508.09
2023-02-09T02:38:19.772Z,95503.66
2023-02-09T02:41:03.769Z,95505.22
2023-02-09T02:43:43.354Z,95512.06
2023-02-09T02:46:20.671Z,95507.94
2023-02-09T02:48:59.432Z,95507.75
2023-02-09T02:51:42.239Z,95495.06
2023-02-09T02:54:15.670Z,95500.16
2023-02-09T02:56:50.958Z,95506.03
2023-02-09T02:59:22.959Z,95509.38
2023-02-09T03:02:06.306Z,95505.72
2023-02-09T03:04:35.491Z,95496.06
2023-02-09T03:07:05.549Z,95507.63
2023-02-09T03:09:32.058Z,95509.38
2023-02-09T03:12:15.448Z,95504.91
2023-02-09T03:14:49.493Z,95508.44
2023-02-09T03:17:29.036Z,95504.00
2023-02-09T03:20:02.407Z,95501.44
2023-02-09T03:22:36.849Z,95508.59
2023-02-09T03:25:12.751Z,95504.47
2023-02-09T03:27:55.517Z,95499.09
2023-02-09T03:30:23.433Z,95503.72
2023-02-09T03:32:56.111Z,95500.53
2023-02-09T03:35:26.326Z,95503.38
2023-02-09T03:37:52.815Z,95505.31
2023-02-09T03:40:19.765Z,95514.84
2023-02-09T03:42:46.343Z,95517.69
2023-02-09T03:45:12.979Z,95521.03
2023-02-09T03:47:39.387Z,95522.47
2023-02-09T03:50:07.345Z,95524.53
2023-02-09T03:52:33.974Z,95532.47
2023-02-09T03:55:00.345Z,95525.34
2023-02-09T03:57:26.795Z,95522.47
2023-02-09T03:59:53.180Z,95522.00
2023-02-09T04:02:19.648Z,95523.59
2023-02-09T04:04:46.142Z,95524.34
2023-02-09T04:07:13.866Z,95521.50
2023-02-09T04:09:40.422Z,95512.00
2023-02-09T04:12:07.019Z,95503.13
2023-02-09T04:14:33.417Z,95501.84
2023-02-09T04:16:59.833Z,95502.97
2023-02-09T04:19:26.277Z,95510.22
2023-02-09T04:21:52.661Z,95506.44
2023-02-09T04:24:26.023Z,95502.00
2023-02-09T04:26:52.441Z,95507.56
2023-02-09T04:29:18.885Z,95506.75
2023-02-09T04:31:45.390Z,95505.03
2023-02-09T04:34:11.818Z,95506.44
2023-02-09T04:36:38.230Z,95510.09
2023-02-09T04:39:04.629Z,95507.25
2023-02-09T04:41:31.035Z,95511.53
2023-02-09T04:43:57.498Z,95513.56
2023-02-09T04:46:23.979Z,95503.44
2023-02-09T04:48:50.456Z,95510.09
2023-02-09T04:51:16.917Z,95511.66
2023-02-09T04:53:43.361Z,95517.72
2023-02-09T04:56:15.119Z,95506.88
2023-02-09T04:59:00.770Z,95517.34
2023-02-09T05:01:27.425Z,95514.78
2023-02-09T05:03:53.941Z,95518.44
2023-02-09T05:06:20.966Z,95521.75
2023-02-09T05:08:48.562Z,95522.56
2023-02-09T05:11:15.561Z,95516.97
2023-02-09T05:13:42.425Z,95520.47
2023-02-09T05:16:13.362Z,95517.13
2023-02-09T05:18:39.991Z,95520.63
2023-02-09T05:21:06.549Z,95516.34
2023-02-09T05:23:33.527Z,95519.34
2023-02-09T05:26:00.204Z,95519.84
2023-02-09T05:28:26.748Z,95515.56
2023-02-09T05:30:56.171Z,95517.63
2023-02-09T05:33:24.409Z,95520.47
2023-02-09T05:35:52.335Z,95517.91
2023-02-09T05:38:19.217Z,95521.13
2023-02-09T05:40:45.652Z,95513.84
2023-02-09T05:43:12.249Z,95480.50
2023-02-09T05:45:39.017Z,95509.25
2023-02-09T05:48:05.563Z,95517.31
2023-02-09T05:50:32.112Z,95504.94
2023-02-09T05:52:59.691Z,95506.53
2023-02-09T05:55:26.216Z,95507.81
2023-02-09T05:57:52.624Z,95497.34
2023-02-09T06:00:19.367Z,95507.47
2023-02-09T06:02:45.873Z,95503.72
2023-02-09T06:05:12.468Z,95509.09
2023-02-09T06:07:38.911Z,95514.78
2023-02-09T06:10:05.473Z,95512.25
2023-02-09T06:12:31.851Z,95510.66
2023-02-09T06:14:58.226Z,95505.13
2023-02-09T06:17:24.689Z,95504.63
2023-02-09T06:19:51.110Z,95506.38
2023-02-09T06:22:17.549Z,95510.81
2023-02-09T06:24:43.936Z,95513.50
2023-02-09T06:27:11.787Z,95508.38
2023-02-09T06:29:38.157Z,95531.88
2023-02-09T06:32:04.877Z,95537.38
2023-02-09T06:34:31.329Z,95548.63
2023-02-09T06:36:57.783Z,95545.75
2023-02-09T06:39:24.398Z,95553.50
2023-02-09T06:41:51.854Z,95561.25
2023-02-09T06:44:18.801Z,95558.38
2023-02-09T06:46:45.241Z,95568.53
2023-02-09T06:49:11.631Z,95567.59
2023-02-09T06:51:38.241Z,95566.63
2023-02-09T06:54:04.851Z,95569.94
2023-02-09T06:56:31.309Z,95558.03
2023-02-09T06:58:57.877Z,95570.75
2023-02-09T07:01:24.409Z,95583.13
2023-02-09T07:03:50.883Z,95587.09
2023-02-09T07:06:19.194Z,95584.72
2023-02-09T07:08:46.403Z,95586.59
2023-02-09T07:11:15.680Z,95582.31
2023-02-09T07:13:42.663Z,95576.16
2023-02-09T07:16:11.287Z,95582.53
2023-02-09T07:18:38.527Z,95582.22
2023-02-09T07:21:08.534Z,95581.75
2023-02-09T07:23:35.384Z,95574.97
2023-02-09T07:26:07.009Z,95588.97
2023-02-09T07:28:35.408Z,95590.25
2023-02-09T07:31:04.875Z,95594.09
2023-02-09T07:33:31.895Z,95583.81
2023-02-09T07:35:58.575Z,95586.53
2023-02-09T07:38:25.262Z,95585.44
2023-02-09T07:40:51.811Z,95583.22
2023-02-09T07:43:18.192Z,95593.25
2023-02-09T07:45:44.833Z,95602.13
2023-02-09T07:48:11.725Z,95584.66
2023-02-09T07:50:38.339Z,95600.88
2023-02-09T07:53:04.750Z,95594.03
2023-02-09T07:55:31.342Z,95591.63
2023-02-09T07:57:57.800Z,95593.22
2023-02-09T08:00:25.465Z,95591.63
2023-02-09T08:02:52.533Z,95588.91
2023-02-09T08:05:37.282Z,95593.97
2023-02-09T08:08:03.746Z,95598.88
2023-02-09T08:10:30.212Z,95590.28
2023-02-09T08:13:02.516Z,95596.13
2023-02-09T08:15:34.649Z,95592.78
2023-02-09T08:18:04.620Z,95589.91
2023-02-09T08:20:32.143Z,95599.28
2023-02-09T08:23:18.507Z,95594.97
2023-02-09T08:25:45.129Z,95599.13
2023-02-09T08:28:11.921Z,95603.88
2023-02-09T08:30:38.347Z,95600.06
2023-02-09T08:33:04.748Z,95592.91
2023-02-09T08:35:31.526Z,95590.94
2023-02-09T08:38:03.157Z,95599.81
2023-02-09T08:40:30.740Z,95595.81
2023-02-09T08:42:57.158Z,95597.84
2023-02-09T08:45:24.459Z,95590.84
2023-02-09T08:47:50.974Z,95591.50
2023-02-09T08:50:17.410Z,95592.84
2023-02-09T08:52:43.922Z,95595.03
2023-02-09T08:55:10.464Z,95596.72
2023-02-09T08:57:44.015Z,95600.28
2023-02-09T09:00:11.940Z,95593.41
2023-02-09T09:02:38.353Z,95594.28
2023-02-09T09:05:05.054Z,95593.47
2023-02-09T09:07:31.586Z,95600.59
2023-02-09T09:09:57.976Z,95582.22
2023-02-09T09:12:24.390Z,95591.31
2023-02-09T09:14:51.155Z,95594.06
2023-02-09T09:17:17.583Z,95586.59
2023-02-09T09:19:44.037Z,95583.03
2023-02-09T09:22:10.451Z,95591.03
2023-02-09T09:24:40.593Z,95591.59
2023-02-09T09:27:08.862Z,95585.59
2023-02-09T09:29:35.926Z,95581.00
2023-02-09T09:32:02.740Z,95584.88
2023-02-09T09:34:29.294Z,95575.81
2023-02-09T09:36:55.675Z,95589.09
2023-02-09T09:39:22.148Z,95587.94
2023-02-09T09:41:53.094Z,95589.06
2023-02-09T09:44:30.644Z,95583.13
2023-02-09T09:47:01.168Z,95587.44
2023-02-09T09:49:31.386Z,95590.78
2023-02-09T09:52:13.201Z,95601.63
2023-02-09T09:54:41.390Z,95594.88
2023-02-09T09:57:25.030Z,95589.13
2023-02-09T09:59:53.156Z,95598.69
2023-02-09T10:02:29.193Z,95608.25
2023-02-09T10:05:06.846Z,95614.34
2023-02-09T10:07:34.433Z,95615.03
2023-02-09T10:10:10.979Z,95614.91
2023-02-09T10:12:40.696Z,95610.22
2023-02-09T10:15:32.694Z,95609.06
2023-02-09T10:17:59.785Z,95610.25
2023-02-09T10:20:45.974Z,95600.59
2023-02-09T10:23:37.509Z,95609.88
2023-02-09T10:26:04.012Z,95611.22
2023-02-09T10:28:37.627Z,95610.63
2023-02-09T10:31:11.330Z,95601.88
2023-02-09T10:33:42.951Z,95598.66
2023-02-09T10:36:24.617Z,95596.25
2023-02-09T10:38:52.273Z,95593.47
2023-02-09T10:41:21.035Z,95593.78
2023-02-09T10:43:52.537Z,95600.63
2023-02-09T10:46:20.837Z,95590.09
2023-02-09T10:48:47.678Z,95594.03
2023-02-09T10:51:17.087Z,95580.28
2023-02-09T10:53:55.595Z,95583.50
2023-02-09T10:56:25.372Z,95585.44
2023-02-09T10:59:03.360Z,95557.22
2023-02-09T11:01:41.879Z,95579.19
2023-02-09T11:04:21.950Z,95577.94
2023-02-09T11:06:54.293Z,95576.09
2023-02-09T11:09:28.035Z,95577.97
2023-02-09T11:11:54.827Z,95577.50
2023-02-09T11:14:21.948Z,95572.88
2023-02-09T11:17:15.840Z,95573.44
2023-02-09T11:20:05.014Z,95559.09
2023-02-09T11:22:49.864Z,95565.38
2023-02-09T11:25:49.802Z,95555.19
2023-02-09T11:28:42.188Z,95554.50
2023-02-09T11:31:24.185Z,95560.50
2023-02-09T11:34:05.821Z,95565.13
2023-02-09T11:36:41.066Z,95559.03
2023-02-09T11:39:25.042Z,95555.34
2023-02-09T11:42:29.101Z,95549.91
2023-02-09T11:45:02.559Z,95550.69
2023-02-09T11:47:42.094Z,95541.84
2023-02-09T11:50:10.757Z,95543.66
2023-02-09T11:52:48.915Z,95540.38
2023-02-09T11:55:27.685Z,95541.56
2023-02-09T11:58:15.606Z,95539.38
2023-02-09T12:01:13.315Z,95541.63
2023-02-09T12:03:55.925Z,95524.53
2023-02-09T12:06:24.045Z,95535.19
2023-02-09T12:09:08.693Z,95541.69
2023-02-09T12:11:50.286Z,95533.44
2023-02-09T12:14:47.126Z,95536.00
2023-02-09T12:18:12.971Z,95541.69
2023-02-09T12:20:56.846Z,95537.00
2023-02-09T12:23:43.451Z,95525.84
2023-02-09T12:26:12.654Z,95529.72
2023-02-09T12:28:40.555Z,95529.34
2023-02-09T12:31:14.870Z,95519.78
2023-02-09T12:33:47.396Z,95522.53
2023-02-09T12:36:13.797Z,95526.03
2023-02-09T12:38:56.762Z,95528.75
2023-02-09T12:41:40.925Z,95532.56
2023-02-09T12:44:10.402Z,95533.69
2023-02-09T12:46:52.749Z,95534.31
2023-02-09T12:49:21.712Z,95510.84
2023-02-09T12:51:51.655Z,95514.25
2023-02-09T12:54:54.720Z,95522.63
2023-02-09T12:57:22.161Z,95517.59
2023-02-09T13:00:09.557Z,95512.59
2023-02-09T13:02:49.514Z,95514.34
2023-02-09T13:05:23.497Z,95512.22
2023-02-09T13:08:05.907Z,95515.94
2023-02-09T13:10:41.162Z,95500.34
2023-02-09T13:13:19.290Z,95517.47
2023-02-09T13:16:00.909Z,95513.94
2023-02-09T13:18:37.891Z,95504.31
2023-02-09T13:21:15.934Z,95497.25
2023-02-09T13:24:03.284Z,95496.75
2023-02-09T13:26:34.839Z,95491.31
2023-02-09T13:29:22.163Z,95484.72
2023-02-09T13:31:54.621Z,95493.22
2023-02-09T13:34:30.343Z,95502.72
2023-02-09T13:37:18.851Z,95503.69
2023-02-09T13:39:45.628Z,95501.19
2023-02-09T13:42:19.441Z,95502.00
2023-02-09T13:44:46.757Z,95493.53
2023-02-09T13:47:15.669Z,95494.97
2023-02-09T13:49:43.175Z,95491.75
2023-02-09T13:52:16.382Z,95501.78
2023-02-09T13:54:43.477Z,95497.16
2023-02-09T13:57:31.295Z,95503.31
2023-02-09T14:00:08.688Z,95503.06
2023-02-09T14:02:49.948Z,95505.22
2023-02-09T14:05:43.726Z,95504.59
2023-02-09T14:08:13.286Z,95503.66
2023-02-09T14:10:41.612Z,95504.28
2023-02-09T14:13:21.608Z,95497.34
2023-02-09T14:16:09.639Z,95507.22
2023-02-09T14:18:54.485Z,95512.13
2023-02-09T14:21:20.819Z,95514.09
2023-02-09T14:23:56.995Z,95508.47
2023-02-09T14:26:27.820Z,95520.78
2023-02-09T14:29:17.607Z,95517.75
2023-02-09T14:31:47.320Z,95523.16
2023-02-09T14:34:23.874Z,95525.53
2023-02-09T14:36:53.535Z,95526.06
2023-02-09T14:39:21.116Z,95520.13
2023-02-09T14:42:17.955Z,95532.13
2023-02-09T14:44:56.133Z,95539.31
2023-02-09T14:47:34.745Z,95540.81
2023-02-09T14:50:02.244Z,95543.22
2023-02-09T14:52:31.470Z,95540.28
2023-02-09T14:55:01.959Z,95553.88
2023-02-09T14:57:32.099Z,95556.13
2023-02-09T14:59:58.610Z,95550.06
2023-02-09T15:02:27.525Z,95557.97
2023-02-09T15:04:54.821Z,95560.22
2023-02-09T15:07:34.973Z,95569.31
2023-02-09T15:10:06.810Z,95571.69
2023-02-09T15:12:33.887Z,95565.84
2023-02-09T15:15:01.608Z,95562.75
2023-02-09T15:17:30.430Z,95571.50
2023-02-09T15:19:58.255Z,95562.81
2023-02-09T15:22:24.915Z,95575.97
2023-02-09T15:24:54.248Z,95561.91
2023-02-09T15:27:28.734Z,95563.56
2023-02-09T15:29:58.503Z,95559.03
2023-02-09T15:32:26.930Z,95551.91
2023-02-09T15:34:54.446Z,95550.34
2023-02-09T15:37:25.318Z,95537.25
2023-02-09T15:39:56.603Z,95548.41
2023-02-09T15:42:41.485Z,95553.75
2023-02-09T15:45:41.065Z,95552.63
2023-02-09T15:48:08.257Z,95560.41
2023-02-09T15:50:39.886Z,95567.88
2023-02-09T15:53:14.691Z,95571.81
2023-02-09T15:55:42.898Z,95582.66
2023-02-09T15:58:15.069Z,95577.44
2023-02-09T16:00:42.025Z,95581.06
2023-02-09T16:03:15.620Z,95586.25
2023-02-09T16:05:42.547Z,95588.91
2023-02-09T16:08:18.868Z,95590.41
2023-02-09T16:10:46.943Z,95597.78
2023-02-09T16:13:18.827Z,95598.78
2023-02-09T16:15:45.582Z,95596.09
2023-02-09T16:18:12.066Z,95604.16
2023-02-09T16:20:46.528Z,95598.16
2023-02-09T16:23:20.589Z,95605.03
2023-02-09T16:25:49.828Z,95604.31
2023-02-09T16:28:16.897Z,95614.81
2023-02-09T16:30:50.480Z,95612.63
2023-02-09T16:33:17.428Z,95617.22
2023-02-09T16:35:44.460Z,95620.88
2023-02-09T16:38:19.153Z,95625.97
2023-02-09T16:40:46.519Z,95630.81
2023-02-09T16:43:13.305Z,95627.22
2023-02-09T16:45:43.177Z,95621.84
2023-02-09T16:48:25.374Z,95629.06
2023-02-09T16:50:53.653Z,95641.16
2023-02-09T16:53:36.589Z,95641.81
2023-02-09T16:56:09.889Z,95636.72
2023-02-09T16:58:37.280Z,95650.16
2023-02-09T17:01:04.308Z,95656.28
2023-02-09T17:03:39.248Z,95654.91
2023-02-09T17:06:06.424Z,95654.88
2023-02-09T17:08:34.682Z,95654.69
2023-02-09T17:11:04.105Z,95654.81
2023-02-09T17:13:31.246Z,95659.16
2023-02-09T17:16:06.245Z,95655.19
2023-02-09T17:18:38.911Z,95662.31
2023-02-09T17:21:20.548Z,95666.00
2023-02-09T17:23:47.281Z,95668.53
2023-02-09T17:26:14.032Z,95664.75
2023-02-09T17:28:42.956Z,95674.59
2023-02-09T17:31:23.084Z,95679.06
2023-02-09T17:33:56.681Z,95678.44
2023-02-09T17:36:27.674Z,95664.03
2023-02-09T17:38:56.843Z,95661.84
2023-02-09T17:41:31.318Z,95658.06
2023-02-09T17:44:20.819Z,95649.97
2023-02-09T17:46:53.913Z,95658.44
2023-02-09T17:49:20.364Z,95661.34
2023-02-09T17:51:47.668Z,95657.78
2023-02-09T17:54:16.501Z,95667.63
2023-02-09T17:56:43.366Z,95663.47
2023-02-09T17:59:10.009Z,95677.28
2023-02-09T18:01:42.109Z,95663.84
2023-02-09T18:04:16.900Z,95669.97
2023-02-09T18:06:43.303Z,95688.44
2023-02-09T18:09:14.330Z,95683.88
2023-02-09T18:12:19.409Z,95693.28
2023-02-09T18:14:45.847Z,95703.84
2023-02-09T18:17:12.322Z,95696.47
2023-02-09T18:19:38.733Z,95710.81
2023-02-09T18:22:05.173Z,95712.31
2023-02-09T18:24:34.140Z,95716.25
2023-02-09T18:27:00.678Z,95723.69
2023-02-09T18:29:29.488Z,95721.47
2023-02-09T18:31:57.797Z,95724.41
2023-02-09T18:34:24.657Z,95722.94
2023-02-09T18:36:51.114Z,95725.84
2023-02-09T18:39:17.569Z,95734.88
2023-02-09T18:41:46.259Z,95731.72
2023-02-09T18:44:12.709Z,95738.16
2023-02-09T18:46:39.167Z,95740.47
2023-02-09T18:49:05.595Z,95738.81
2023-02-09T18:51:32.430Z,95742.88
2023-02-09T18:54:00.164Z,95739.44
2023-02-09T18:56:28.166Z,95743.75
2023-02-09T18:58:54.794Z,95748.09
2023-02-09T19:01:22.997Z,95751.81
2023-02-09T19:03:54.078Z,95741.50
2023-02-09T19:06:21.879Z,95751.72
2023-02-09T19:08:50.318Z,95757.97
2023-02-09T19:11:18.953Z,95755.78
2023-02-09T19:14:05.625Z,95759.03
2023-02-09T19:16:32.070Z,95759.38
2023-02-09T19:18:59.112Z,95760.44
2023-02-09T19:21:25.541Z,95770.31
2023-02-09T19:23:53.900Z,95764.59
2023-02-09T19:26:20.662Z,95771.31
2023-02-09T19:28:48.182Z,95763.63
2023-02-09T19:31:15.863Z,95765.41
2023-02-09T19:33:42.318Z,95759.84
2023-02-09T19:36:09.101Z,95762.75
2023-02-09T19:38:35.521Z,95752.25
2023-02-09T19:41:10.513Z,95760.03
2023-02-09T19:43:39.197Z,95761.25
2023-02-09T19:46:06.329Z,95759.13
2023-02-09T19:48:33.040Z,95761.34
2023-02-09T19:50:59.871Z,95762.09
2023-02-09T19:53:26.875Z,95770.91
2023-02-09T19:55:54.178Z,95763.00
2023-02-09T19:58:21.721Z,95759.22
2023-02-09T20:00:49.189Z,95759.75
2023-02-09T20:03:16.161Z,95765.38
2023-02-09T20:05:43.885Z,95770.25
2023-02-09T20:08:13.644Z,95766.03
2023-02-09T20:10:40.288Z,95776.31
2023-02-09T20:13:07.174Z,95777.34
2023-02-09T20:15:33.582Z,95775.69
2023-02-09T20:18:00.007Z,95780.59
2023-02-09T20:20:26.495Z,95777.88
2023-02-09T20:22:53.762Z,95770.03
2023-02-09T20:25:20.198Z,95767.94
2023-02-09T20:27:48.650Z,95769.97
2023-02-09T20:30:15.157Z,95768.81
2023-02-09T20:32:41.640Z,95777.09
2023-02-09T20:35:10.033Z,95769.28
2023-02-09T20:37:36.738Z,95763.38
2023-02-09T20:40:04.181Z,95770.41
2023-02-09T20:42:48.945Z,95772.16
2023-02-09T20:45:35.933Z,95775.53
2023-02-09T20:48:04.093Z,95774.38
2023-02-09T20:50:32.637Z,95773.38
2023-02-09T20:53:01.331Z,95768.47
2023-02-09T20:55:29.490Z,95759.41
2023-02-09T20:57:56.094Z,95767.22
2023-02-09T21:00:22.646Z,95767.88
2023-02-09T21:02:49.219Z,95769.16
2023-02-09T21:05:16.603Z,95766.97
2023-02-09T21:07:43.158Z,95767.31
2023-02-09T21:10:12.754Z,95771.66
2023-02-09T21:12:39.148Z,95770.84
2023-02-09T21:15:05.861Z,95766.09
2023-02-09T21:17:32.300Z,95773.81
2023-02-09T21:19:58.751Z,95768.78
2023-02-09T21:22:25.124Z,95779.34
2023-02-09T21:24:51.508Z,95787.34
2023-02-09T21:27:17.956Z,95775.59
2023-02-09T21:29:44.393Z,95775.94
2023-02-09T21:32:11.098Z,95776.94
2023-02-09T21:34:37.580Z,95772.91
2023-02-09T21:37:07.683Z,95780.84
2023-02-09T21:39:34.093Z,95786.38
2023-02-09T21:42:19.175Z,95785.25
2023-02-09T21:44:45.558Z,95787.97
2023-02-09T21:47:12.073Z,95793.13
2023-02-09T21:49:38.591Z,95787.16
2023-02-09T21:52:05.402Z,95797.56
2023-02-09T21:54:33.761Z,95797.97
2023-02-09T21:57:03.616Z,95791.00
2023-02-09T21:59:30.065Z,95801.38
2023-02-09T22:01:56.646Z,95796.28
2023-02-09T22:04:23.587Z,95806.47
2023-02-09T22:06:50.047Z,95804.25
2023-02-09T22:09:16.524Z,95807.50
2023-02-09T22:11:42.958Z,95800.56
2023-02-09T22:14:09.370Z,95807.91
2023-02-09T22:16:35.895Z,95805.09
2023-02-09T22:19:02.379Z,95813.69
2023-02-09T22:21:28.813Z,95809.06
2023-02-09T22:23:55.242Z,95813.97
2023-02-09T22:26:21.918Z,95813.28
2023-02-09T22:28:48.690Z,95826.00
2023-02-09T22:31:17.602Z,95830.72
2023-02-09T22:33:44.630Z,95821.50
2023-02-09T22:36:13.799Z,95822.13
2023-02-09T22:38:40.969Z,95825.63
2023-02-09T22:41:21.422Z,95840.78
2023-02-09T22:43:52.398Z,95839.38
2023-02-09T22:46:20.493Z,95832.56
2023-02-09T22:48:52.115Z,95834.50
2023-02-09T22:51:18.868Z,95844.94
2023-02-09T22:53:45.579Z,95834.31
2023-02-09T22:56:12.860Z,95842.13
2023-02-09T22:58:39.356Z,95847.09
2023-02-09T23:01:06.885Z,95855.72
2023-02-09T23:03:34.068Z,95856.88
2023-02-09T23:06:02.264Z,95853.22
2023-02-09T23:08:29.284Z,95857.50
2023-02-09T23:11:02.017Z,95848.31
2023-02-09T23:13:28.544Z,95856.56
2023-02-09T23:15:54.953Z,95860.25
2023-02-09T23:18:21.480Z,95860.06
2023-02-09T23:20:48.985Z,95870.91
2023-02-09T23:23:16.260Z,95863.09
2023-02-09T23:25:42.777Z,95868.34
2023-02-09T23:28:09.210Z,95870.53
2023-02-09T23:30:35.686Z,95870.84
2023-02-09T23:33:02.252Z,95871.63
2023-02-09T23:35:28.732Z,95873.22
2023-02-09T23:37:55.120Z,95874.16
2023-02-09T23:40:21.500Z,95873.72
2023-02-09T23:42:47.879Z,95877.84
2023-02-09T23:45:14.401Z,95879.94
2023-02-09T23:47:40.795Z,95880.22
2023-02-09T23:50:07.292Z,95883.88
2023-02-09T23:52:33.702Z,95882.56
2023-02-09T23:55:00.232Z,95887.66
2023-02-09T23:57:26.650Z,95885.91
2023-02-09T23:59:53.059Z,95889.25
